createdAt,value
2018-06-14T00:01:44.926Z,1.90
2018-06-14T00:04:13.515Z,1.10
2018-06-14T00:06:42.089Z,1.50
2018-06-14T00:09:11.322Z,1.25
2018-06-14T00:11:39.979Z,1.37
2018-06-14T00:14:08.636Z,1.30
2018-06-14T00:16:36.934Z,1.20
2018-06-14T00:19:05.827Z,1.22
2018-06-14T00:21:34.385Z,1.00
2018-06-14T00:24:02.997Z,2.00
2018-06-14T00:26:31.649Z,1.23
2018-06-14T00:29:00.298Z,1.80
2018-06-14T00:31:28.948Z,1.30
2018-06-14T00:33:57.544Z,1.67
2018-06-14T00:36:26.141Z,1.10
2018-06-14T00:38:54.715Z,1.05
2018-06-14T00:41:23.628Z,1.73
2018-06-14T00:43:52.786Z,1.17
2018-06-14T00:46:21.386Z,1.10
2018-06-14T00:48:49.960Z,1.10
2018-06-14T00:51:18.487Z,1.25
2018-06-14T00:53:47.106Z,1.32
2018-06-14T00:56:15.805Z,1.47
2018-06-14T00:58:44.707Z,1.57
2018-06-14T01:01:13.398Z,1.22
2018-06-14T01:03:41.995Z,1.67
2018-06-14T01:06:10.554Z,0.98
2018-06-14T01:08:39.124Z,0.98
2018-06-14T01:11:07.759Z,0.93
2018-06-14T01:13:36.952Z,1.90
2018-06-14T01:16:05.519Z,1.15
2018-06-14T01:18:34.160Z,1.90
2018-06-14T01:23:55.800Z,1.27
2018-06-14T01:26:24.390Z,2.30
2018-06-14T01:28:53.187Z,2.25
2018-06-14T01:31:21.768Z,1.10
2018-06-14T01:33:50.378Z,1.40
2018-06-14T01:36:18.989Z,1.02
2018-06-14T01:38:47.601Z,1.20
2018-06-14T01:41:16.292Z,1.50
2018-06-14T01:43:44.894Z,1.07
2018-06-14T01:46:13.614Z,2.75
2018-06-14T01:48:43.099Z,1.47
2018-06-14T01:51:11.675Z,1.50
2018-06-14T01:53:40.312Z,1.60
2018-06-14T01:56:08.842Z,1.37
2018-06-14T02:01:28.525Z,1.30
2018-06-14T02:03:57.236Z,1.20
2018-06-14T02:06:25.797Z,1.43
2018-06-14T02:08:54.362Z,1.40
2018-06-14T02:11:23.276Z,1.20
2018-06-14T02:13:51.808Z,1.05
2018-06-14T02:16:20.443Z,1.52
2018-06-14T02:18:49.064Z,1.35
2018-06-14T02:21:17.886Z,1.40
2018-06-14T02:23:46.471Z,0.97
2018-06-14T02:26:15.131Z,1.05
2018-06-14T02:28:43.710Z,1.25
2018-06-14T02:31:12.862Z,1.12
2018-06-14T02:33:41.466Z,2.10
2018-06-14T02:36:10.100Z,2.15
2018-06-14T02:38:38.664Z,1.30
2018-06-14T02:41:07.268Z,1.05
2018-06-14T02:43:35.851Z,1.10
2018-06-14T02:46:05.002Z,1.62
2018-06-14T02:48:33.635Z,0.90
2018-06-14T02:51:02.222Z,3.30
2018-06-14T02:53:30.763Z,1.27
2018-06-14T02:55:59.394Z,1.12
2018-06-14T02:58:27.991Z,1.17
2018-06-14T03:00:56.626Z,1.30
2018-06-14T03:03:25.537Z,1.30
2018-06-14T03:05:55.068Z,1.90
2018-06-14T03:08:23.727Z,1.92
2018-06-14T03:10:52.341Z,1.67
2018-06-14T03:13:20.911Z,1.55
2018-06-14T03:15:49.444Z,1.30
2018-06-14T03:18:18.044Z,1.00
2018-06-14T03:20:46.659Z,1.90
2018-06-14T03:23:16.148Z,1.45
2018-06-14T03:25:45.376Z,1.30
2018-06-14T03:28:14.402Z,1.95
2018-06-14T03:30:43.077Z,1.60
2018-06-14T03:33:11.847Z,1.35
2018-06-14T03:35:41.652Z,1.30
2018-06-14T03:38:10.237Z,1.50
2018-06-14T03:40:38.841Z,1.40
2018-06-14T03:43:07.443Z,2.25
2018-06-14T03:45:35.989Z,1.22
2018-06-14T03:48:05.280Z,1.40
2018-06-14T03:50:33.858Z,1.30
2018-06-14T03:53:02.507Z,1.45
2018-06-14T03:55:31.239Z,2.40
2018-06-14T03:57:59.854Z,1.37
2018-06-14T04:00:28.371Z,1.70
2018-06-14T04:02:56.995Z,1.50
2018-06-14T04:05:25.551Z,1.50
2018-06-14T04:07:54.137Z,1.40
2018-06-14T04:10:22.793Z,2.10
2018-06-14T04:12:51.348Z,1.55
2018-06-14T04:15:19.893Z,1.17
2018-06-14T04:18:00.864Z,1.65
2018-06-14T04:20:30.686Z,1.30
2018-06-14T04:22:59.400Z,2.75
2018-06-14T04:25:28.003Z,1.92
2018-06-14T04:27:56.601Z,2.52
2018-06-14T04:30:26.901Z,1.60
2018-06-14T04:32:55.511Z,1.80
2018-06-14T04:35:24.510Z,1.42
2018-06-14T04:37:55.706Z,1.25
2018-06-14T04:40:24.273Z,1.35
2018-06-14T04:42:53.930Z,2.67
2018-06-14T04:45:22.856Z,1.52
2018-06-14T04:47:51.458Z,1.47
2018-06-14T04:50:20.354Z,1.45
2018-06-14T04:52:49.274Z,1.65
2018-06-14T04:55:17.848Z,1.80
2018-06-14T04:57:46.455Z,1.30
2018-06-14T05:00:15.105Z,1.55
2018-06-14T05:02:43.743Z,2.17
2018-06-14T05:05:12.312Z,1.30
2018-06-14T05:07:40.880Z,1.40
2018-06-14T05:10:09.539Z,1.50
2018-06-14T05:12:38.141Z,1.22
2018-06-14T05:15:06.726Z,1.70
2018-06-14T05:17:35.334Z,2.02
2018-06-14T05:20:04.020Z,1.40
2018-06-14T05:22:32.772Z,2.22
2018-06-14T05:25:01.387Z,2.67
2018-06-14T05:27:30.533Z,2.15
2018-06-14T05:29:59.437Z,2.55
2018-06-14T05:32:28.372Z,2.08
2018-06-14T05:34:57.303Z,3.25
2018-06-14T05:37:25.994Z,2.07
2018-06-14T05:39:54.601Z,1.85
2018-06-14T05:42:23.471Z,1.98
2018-06-14T05:44:52.017Z,1.70
2018-06-14T05:47:20.625Z,1.30
2018-06-14T05:49:49.247Z,1.80
2018-06-14T05:52:17.836Z,1.40
2018-06-14T05:54:46.477Z,1.30
2018-06-14T05:57:15.153Z,1.37
2018-06-14T05:59:43.744Z,1.55
2018-06-14T06:02:12.908Z,1.30
2018-06-14T06:04:41.553Z,1.50
2018-06-14T06:07:10.154Z,1.72
2018-06-14T06:09:40.610Z,2.40
2018-06-14T06:12:09.207Z,1.45
2018-06-14T06:14:37.932Z,1.67
2018-06-14T06:17:06.520Z,1.22
2018-06-14T06:19:35.764Z,1.52
2018-06-14T06:22:04.364Z,1.22
2018-06-14T06:24:33.332Z,1.52
2018-06-14T06:27:02.041Z,1.50
2018-06-14T06:29:30.663Z,1.37
2018-06-14T06:31:59.287Z,1.60
2018-06-14T06:34:28.543Z,1.50
2018-06-14T06:36:57.130Z,1.30
2018-06-14T06:39:25.919Z,2.20
2018-06-14T06:41:54.552Z,1.30
2018-06-14T06:44:23.078Z,1.40
2018-06-14T06:46:51.608Z,1.30
2018-06-14T06:49:20.184Z,1.82
2018-06-14T06:51:48.692Z,2.30
2018-06-14T06:54:17.198Z,1.10
2018-06-14T06:56:45.895Z,2.47
2018-06-14T06:59:14.393Z,1.90
2018-06-14T07:01:42.876Z,1.25
2018-06-14T07:04:11.522Z,2.12
2018-06-14T07:06:40.009Z,1.17
2018-06-14T07:09:09.928Z,1.30
2018-06-14T07:11:38.819Z,1.35
2018-06-14T07:14:07.488Z,1.30
2018-06-14T07:16:36.632Z,1.10
2018-06-14T07:19:05.125Z,1.10
2018-06-14T07:21:34.043Z,1.10
2018-06-14T07:24:02.551Z,1.57
2018-06-14T07:26:31.346Z,1.20
2018-06-14T07:29:00.061Z,1.65
2018-06-14T07:31:28.608Z,1.70
2018-06-14T07:33:57.417Z,1.70
2018-06-14T07:36:25.984Z,1.50
2018-06-14T07:38:54.438Z,1.10
2018-06-14T07:41:23.009Z,0.90
2018-06-14T07:43:51.607Z,1.12
2018-06-14T07:46:20.039Z,1.10
2018-06-14T07:48:48.556Z,0.90
2018-06-14T07:51:17.050Z,1.70
2018-06-14T07:53:45.492Z,1.00
2018-06-14T07:56:13.978Z,0.90
2018-06-14T07:58:42.454Z,0.90
2018-06-14T08:01:11.000Z,1.00
2018-06-14T08:03:39.485Z,1.50
2018-06-14T08:06:08.124Z,1.27
2018-06-14T08:08:36.606Z,1.10
2018-06-14T08:11:05.143Z,1.60
2018-06-14T08:13:34.981Z,1.10
2018-06-14T08:16:03.530Z,0.97
2018-06-14T08:18:32.023Z,0.85
2018-06-14T08:21:00.578Z,1.70
2018-06-14T08:23:29.064Z,1.57
2018-06-14T08:25:57.578Z,0.98
2018-06-14T08:28:26.127Z,1.40
2018-06-14T08:30:54.636Z,1.00
2018-06-14T08:33:23.199Z,1.72
2018-06-14T08:35:51.630Z,0.98
2018-06-14T08:38:20.151Z,0.90
2018-06-14T08:40:48.842Z,0.83
2018-06-14T08:43:17.742Z,0.80
2018-06-14T08:45:46.818Z,1.27
2018-06-14T08:48:15.288Z,0.80
2018-06-14T08:50:43.763Z,0.80
2018-06-14T08:53:12.270Z,0.90
2018-06-14T08:55:40.774Z,1.52
2018-06-14T08:58:09.260Z,1.70
2018-06-14T09:00:37.710Z,0.80
2018-06-14T09:03:06.292Z,1.37
2018-06-14T09:05:34.801Z,0.70
2018-06-14T09:08:03.330Z,0.80
2018-06-14T09:10:31.940Z,0.80
2018-06-14T09:13:00.425Z,0.80
2018-06-14T09:15:28.886Z,0.80
2018-06-14T09:17:57.324Z,0.85
2018-06-14T09:20:25.809Z,0.70
2018-06-14T09:22:54.323Z,1.70
2018-06-14T09:25:22.780Z,1.22
2018-06-14T09:27:51.282Z,0.82
2018-06-14T09:30:19.743Z,0.87
2018-06-14T09:32:48.230Z,0.95
2018-06-14T09:35:16.840Z,0.80
2018-06-14T09:37:45.322Z,0.70
2018-06-14T09:40:13.806Z,1.60
2018-06-14T09:42:42.387Z,0.90
2018-06-14T09:45:10.875Z,1.02
2018-06-14T09:47:39.374Z,0.85
2018-06-14T09:50:07.864Z,1.30
2018-06-14T09:52:36.505Z,1.32
2018-06-14T09:55:05.024Z,1.10
2018-06-14T09:57:33.578Z,1.80
2018-06-14T10:00:02.132Z,0.90
2018-06-14T10:02:30.325Z,1.30
2018-06-14T10:04:58.849Z,1.02
2018-06-14T10:07:27.316Z,0.98
2018-06-14T10:09:55.794Z,0.67
2018-06-14T10:12:24.277Z,0.53
2018-06-14T10:14:52.774Z,0.93
2018-06-14T10:17:21.191Z,1.12
2018-06-14T10:19:49.673Z,0.53
2018-06-14T10:22:18.151Z,1.00
2018-06-14T10:24:46.625Z,1.00
2018-06-14T10:27:15.158Z,1.20
2018-06-14T10:29:43.666Z,1.60
2018-06-14T10:32:12.379Z,0.82
2018-06-14T10:34:41.019Z,1.05
2018-06-14T10:37:09.247Z,0.50
2018-06-14T10:39:37.744Z,0.75
2018-06-14T10:42:06.193Z,0.85
2018-06-14T10:44:34.727Z,0.70
2018-06-14T10:47:03.254Z,1.10
2018-06-14T10:49:31.944Z,1.07
2018-06-14T10:52:00.530Z,0.60
2018-06-14T10:54:28.819Z,0.70
2018-06-14T10:56:57.326Z,0.50
2018-06-14T10:59:25.821Z,0.70
2018-06-14T11:01:54.352Z,1.20
2018-06-14T11:04:23.023Z,0.75
2018-06-14T11:06:51.651Z,0.50
2018-06-14T11:09:20.133Z,1.07
2018-06-14T11:11:48.655Z,0.60
2018-06-14T11:14:17.236Z,0.60
2018-06-14T11:16:46.027Z,0.47
2018-06-14T11:19:14.671Z,0.80
2018-06-14T11:21:43.253Z,0.70
2018-06-14T11:24:11.820Z,0.93
2018-06-14T11:26:40.404Z,0.55
2018-06-14T11:29:09.090Z,1.45
2018-06-14T11:31:37.728Z,0.90
2018-06-14T11:34:06.415Z,0.70
2018-06-14T11:36:35.045Z,1.02
2018-06-14T11:39:05.031Z,0.30
2018-06-14T11:41:33.668Z,0.85
2018-06-14T11:44:02.404Z,0.90
2018-06-14T11:46:31.037Z,0.62
2018-06-14T11:48:59.946Z,0.50
2018-06-14T11:51:28.549Z,0.60
2018-06-14T11:53:57.122Z,1.10
2018-06-14T11:56:25.631Z,0.50
2018-06-14T11:58:54.215Z,0.40
2018-06-14T12:01:22.822Z,1.20
2018-06-14T12:03:51.426Z,1.50
2018-06-14T12:06:20.069Z,0.50
2018-06-14T12:08:49.368Z,0.95
2018-06-14T12:11:18.235Z,0.50
2018-06-14T12:13:46.884Z,0.50
2018-06-14T12:16:15.472Z,0.60
2018-06-14T12:18:44.475Z,0.55
2018-06-14T12:21:13.104Z,0.50
2018-06-14T12:23:41.653Z,0.60
2018-06-14T12:26:10.213Z,0.50
2018-06-14T12:28:38.826Z,0.53
2018-06-14T12:31:07.356Z,1.13
2018-06-14T12:33:35.902Z,0.60
2018-06-14T12:36:04.553Z,0.78
2018-06-14T12:38:33.537Z,0.80
2018-06-14T12:41:02.148Z,0.68
2018-06-14T12:43:30.860Z,0.42
2018-06-14T12:45:59.440Z,0.57
2018-06-14T12:48:28.048Z,0.43
2018-06-14T12:50:57.008Z,0.88
2018-06-14T12:53:26.081Z,0.60
2018-06-14T12:55:54.712Z,1.10
2018-06-14T12:58:23.329Z,0.80
2018-06-14T13:00:51.971Z,0.60
2018-06-14T13:03:20.971Z,0.40
2018-06-14T13:05:50.377Z,0.70
2018-06-14T13:08:18.938Z,0.50
2018-06-14T13:10:47.509Z,0.93
2018-06-14T13:13:16.092Z,2.00
2018-06-14T13:15:44.951Z,0.55
2018-06-14T13:18:13.878Z,0.70
2018-06-14T13:20:42.685Z,1.10
2018-06-14T13:23:11.254Z,0.72
2018-06-14T13:25:39.935Z,0.80
2018-06-14T13:28:08.620Z,1.42
2018-06-14T13:30:38.584Z,0.70
2018-06-14T13:33:11.121Z,1.00
2018-06-14T13:35:40.323Z,1.22
2018-06-14T13:38:08.906Z,1.98
2018-06-14T13:40:38.302Z,0.50
2018-06-14T13:43:07.153Z,0.70
2018-06-14T13:45:35.973Z,1.00
2018-06-14T13:48:04.932Z,0.50
2018-06-14T13:50:33.567Z,0.70
2018-06-14T13:53:02.463Z,0.70
2018-06-14T13:55:31.084Z,0.80
2018-06-14T13:57:59.433Z,0.60
2018-06-14T14:00:29.958Z,0.70
2018-06-14T14:02:58.577Z,0.78
2018-06-14T14:05:27.171Z,0.80
2018-06-14T14:07:55.874Z,0.60
2018-06-14T14:10:24.533Z,1.10
2018-06-14T14:12:53.316Z,0.50
2018-06-14T14:15:21.940Z,0.60
2018-06-14T14:17:50.637Z,0.90
2018-06-14T14:20:19.320Z,0.55
2018-06-14T14:22:47.909Z,0.60
2018-06-14T14:25:16.574Z,0.47
2018-06-14T14:27:45.268Z,0.53
2018-06-14T14:30:13.814Z,0.68
2018-06-14T14:32:42.423Z,0.50
2018-06-14T14:35:11.102Z,0.50
2018-06-14T14:37:39.781Z,0.60
2018-06-14T14:40:08.551Z,0.55
2018-06-14T14:42:37.148Z,0.42
2018-06-14T14:45:06.365Z,1.62
2018-06-14T14:47:35.047Z,0.50
2018-06-14T14:50:03.684Z,0.68
2018-06-14T14:52:32.989Z,0.78
2018-06-14T14:55:01.651Z,0.50
2018-06-14T14:57:31.117Z,0.70
2018-06-14T14:59:59.733Z,0.50
2018-06-14T15:02:28.326Z,0.90
2018-06-14T15:04:56.921Z,0.50
2018-06-14T15:07:26.382Z,0.40
2018-06-14T15:09:54.965Z,0.80
2018-06-14T15:12:23.549Z,0.60
2018-06-14T15:14:52.492Z,0.60
2018-06-14T15:17:21.114Z,0.70
2018-06-14T15:19:49.954Z,0.60
2018-06-14T15:22:18.676Z,0.67
2018-06-14T15:24:48.116Z,0.90
2018-06-14T15:27:17.041Z,0.60
2018-06-14T15:29:45.710Z,0.78
2018-06-14T15:32:15.061Z,0.90
2018-06-14T15:34:44.303Z,0.57
2018-06-14T15:37:12.913Z,0.80
2018-06-14T15:39:41.553Z,0.60
2018-06-14T15:42:10.291Z,0.55
2018-06-14T15:44:38.955Z,2.00
2018-06-14T15:47:07.556Z,1.83
2018-06-14T15:49:36.184Z,0.65
2018-06-14T15:52:05.304Z,0.80
2018-06-14T15:54:34.197Z,0.70
2018-06-14T15:57:02.894Z,0.62
2018-06-14T15:59:32.055Z,1.75
2018-06-14T16:02:00.644Z,0.82
2018-06-14T16:04:29.322Z,0.60
2018-06-14T16:06:57.991Z,1.10
2018-06-14T16:09:26.622Z,0.70
2018-06-14T16:11:55.479Z,0.78
2018-06-14T16:14:24.268Z,0.70
2018-06-14T16:16:52.833Z,1.00
2018-06-14T16:19:22.153Z,1.00
2018-06-14T16:21:50.742Z,1.25
2018-06-14T16:24:19.415Z,0.80
2018-06-14T16:26:48.242Z,0.60
2018-06-14T16:29:16.999Z,0.82
2018-06-14T16:31:45.602Z,0.90
2018-06-14T16:34:14.207Z,1.00
2018-06-14T16:36:42.802Z,0.60
2018-06-14T16:39:11.449Z,0.60
2018-06-14T16:41:40.035Z,0.80
2018-06-14T16:44:08.660Z,0.80
2018-06-14T16:46:37.314Z,0.60
2018-06-14T16:49:05.901Z,0.70
2018-06-14T16:51:34.520Z,1.15
2018-06-14T16:54:03.160Z,0.98
2018-06-14T16:56:31.829Z,0.65
2018-06-14T16:59:00.519Z,0.95
2018-06-14T17:01:29.491Z,1.07
2018-06-14T17:03:58.095Z,1.05
2018-06-14T17:06:26.737Z,0.88
2018-06-14T17:08:56.566Z,0.70
2018-06-14T17:11:25.133Z,0.80
2018-06-14T17:13:53.752Z,0.80
2018-06-14T17:16:22.368Z,2.02
2018-06-14T17:18:51.000Z,1.00
2018-06-14T17:21:19.581Z,0.95
2018-06-14T17:23:48.188Z,1.30
2018-06-14T17:26:16.831Z,0.90
2018-06-14T17:28:45.434Z,1.00
2018-06-14T17:31:14.015Z,0.70
2018-06-14T17:33:42.632Z,0.93
2018-06-14T17:36:11.231Z,2.43
2018-06-14T17:38:39.906Z,0.93
2018-06-14T17:41:08.758Z,0.90
2018-06-14T17:43:37.342Z,1.10
2018-06-14T17:46:05.963Z,1.10
2018-06-14T17:48:34.632Z,1.70
2018-06-14T17:51:03.269Z,1.33
2018-06-14T17:53:32.114Z,0.80
2018-06-14T17:56:01.349Z,1.30
2018-06-14T17:58:29.866Z,0.80
2018-06-14T18:00:59.176Z,0.90
2018-06-14T18:03:27.932Z,0.75
2018-06-14T18:05:56.619Z,1.10
2018-06-14T18:08:25.262Z,1.10
2018-06-14T18:10:53.880Z,1.70
2018-06-14T18:13:22.499Z,1.10
2018-06-14T18:15:51.558Z,0.90
2018-06-14T18:18:20.178Z,1.27
2018-06-14T18:20:48.794Z,1.67
2018-06-14T18:23:18.481Z,1.10
2018-06-14T18:25:47.455Z,1.50
2018-06-14T18:28:16.119Z,1.17
2018-06-14T18:30:45.130Z,1.50
2018-06-14T18:33:13.753Z,1.03
2018-06-14T18:35:42.339Z,1.20
2018-06-14T18:38:11.023Z,1.20
2018-06-14T18:40:39.683Z,1.17
2018-06-14T18:43:09.281Z,1.00
2018-06-14T18:45:38.233Z,1.32
2018-06-14T18:48:06.883Z,1.20
2018-06-14T18:50:35.372Z,1.10
2018-06-14T18:53:03.941Z,1.42
2018-06-14T18:55:32.871Z,1.20
2018-06-14T18:58:01.319Z,1.20
2018-06-14T19:00:29.774Z,1.77
2018-06-14T19:02:58.452Z,1.30
2018-06-14T19:05:27.063Z,1.32
2018-06-14T19:07:55.627Z,1.27
2018-06-14T19:10:24.124Z,1.20
2018-06-14T19:12:52.584Z,1.30
2018-06-14T19:15:21.070Z,1.50
2018-06-14T19:17:49.543Z,1.02
2018-06-14T19:20:18.067Z,1.30
2018-06-14T19:22:46.616Z,2.20
2018-06-14T19:25:15.768Z,1.70
2018-06-14T19:27:44.311Z,2.47
2018-06-14T19:30:12.887Z,1.40
2018-06-14T19:32:41.393Z,1.30
2018-06-14T19:35:09.954Z,1.30
2018-06-14T19:37:38.493Z,1.57
2018-06-14T19:40:07.191Z,1.57
2018-06-14T19:42:35.768Z,1.67
2018-06-14T19:45:05.003Z,2.12
2018-06-14T19:47:33.533Z,1.70
2018-06-14T19:50:02.050Z,1.80
2018-06-14T19:52:30.664Z,1.60
2018-06-14T19:54:59.264Z,1.30
2018-06-14T19:57:27.742Z,1.30
2018-06-14T19:59:56.382Z,2.27
2018-06-14T20:02:25.916Z,1.70
2018-06-14T20:04:54.466Z,1.45
2018-06-14T20:07:23.236Z,1.42
2018-06-14T20:09:52.610Z,1.25
2018-06-14T20:12:21.348Z,1.90
2018-06-14T20:14:49.952Z,2.12
2018-06-14T20:17:19.210Z,1.70
2018-06-14T20:19:47.833Z,1.45
2018-06-14T20:22:16.630Z,1.45
2018-06-14T20:24:45.654Z,1.22
2018-06-14T20:27:14.318Z,1.50
2018-06-14T20:29:43.264Z,1.47
2018-06-14T20:32:11.936Z,1.52
2018-06-14T20:34:40.625Z,1.67
2018-06-14T20:37:09.307Z,1.52
2018-06-14T20:39:38.030Z,1.40
2018-06-14T20:42:06.794Z,1.70
2018-06-14T20:44:35.429Z,3.35
2018-06-14T20:47:05.172Z,2.20
2018-06-14T20:49:35.926Z,2.00
2018-06-14T20:52:05.890Z,2.30
2018-06-14T20:54:35.587Z,1.92
2018-06-14T20:57:07.106Z,3.10
2018-06-14T20:59:36.158Z,1.60
2018-06-14T21:02:05.255Z,2.45
2018-06-14T21:04:34.065Z,1.70
2018-06-14T21:07:02.907Z,1.70
2018-06-14T21:09:31.498Z,2.02
2018-06-14T21:12:00.163Z,1.70
2018-06-14T21:14:29.274Z,1.72
2018-06-14T21:16:58.121Z,1.85
2018-06-14T21:19:26.846Z,1.80
2018-06-14T21:21:55.528Z,2.10
2018-06-14T21:24:24.608Z,2.02
2018-06-14T21:26:53.444Z,1.60
2018-06-14T21:29:22.170Z,1.70
2018-06-14T21:31:51.695Z,2.17
2018-06-14T21:34:20.300Z,1.70
2018-06-14T21:36:48.880Z,1.90
2018-06-14T21:39:17.488Z,1.65
2018-06-14T21:41:46.251Z,1.80
2018-06-14T21:44:14.953Z,2.00
2018-06-14T21:46:43.218Z,1.82
2018-06-14T21:49:11.872Z,1.87
2018-06-14T21:51:40.532Z,2.17
2018-06-14T21:54:09.347Z,1.80
2018-06-14T21:56:37.907Z,2.20
2018-06-14T21:59:06.444Z,2.30
2018-06-14T22:01:35.225Z,2.20
2018-06-14T22:04:03.879Z,2.20
2018-06-14T22:06:32.462Z,2.00
2018-06-14T22:09:01.404Z,2.15
2018-06-14T22:11:30.015Z,2.12
2018-06-14T22:13:58.599Z,2.05
2018-06-14T22:16:27.231Z,2.80
2018-06-14T22:18:55.808Z,1.90
2018-06-14T22:21:24.484Z,2.10
2018-06-14T22:23:53.113Z,1.82
2018-06-14T22:26:21.721Z,1.90
2018-06-14T22:28:50.275Z,2.60
2018-06-14T22:31:18.970Z,1.80
2018-06-14T22:33:58.817Z,2.42
2018-06-14T22:36:27.441Z,2.17
2018-06-14T22:38:56.035Z,1.98
2018-06-14T22:41:25.028Z,2.05
2018-06-14T22:43:53.548Z,2.20
2018-06-14T22:46:23.100Z,2.62
2018-06-14T22:48:51.708Z,2.50
2018-06-14T22:51:21.310Z,2.10
2018-06-14T22:53:49.923Z,2.00
2018-06-14T22:56:18.756Z,2.10
2018-06-14T22:58:47.295Z,1.98
2018-06-14T23:01:48.850Z,1.80
2018-06-14T23:04:20.837Z,1.70
2018-06-14T23:06:49.400Z,2.00
2018-06-14T23:10:32.564Z,1.98
2018-06-14T23:13:01.185Z,2.10
2018-06-14T23:15:30.370Z,1.90
2018-06-14T23:17:59.296Z,2.37
2018-06-14T23:20:28.875Z,1.80
2018-06-14T23:22:58.244Z,2.25
2018-06-14T23:25:27.655Z,2.42
2018-06-14T23:27:56.265Z,2.22
2018-06-14T23:30:25.052Z,3.12
2018-06-14T23:32:53.605Z,2.07
2018-06-14T23:35:22.153Z,2.20
2018-06-14T23:37:50.696Z,2.33
2018-06-14T23:40:19.307Z,2.25
2018-06-14T23:42:48.106Z,2.58
2018-06-14T23:45:16.656Z,2.70
2018-06-14T23:47:45.186Z,2.70
2018-06-14T23:50:13.747Z,2.80
2018-06-14T23:52:42.065Z,2.23
2018-06-14T23:55:10.728Z,2.35
2018-06-14T23:57:39.290Z,2.47
